sensor_id;sensor_type;location;lat;lon;timestamp;P1;P2;P0
23240;PMS7003;11789;53.482;9.862;2023-02-11T00:01:58;67.33;51.67;31.33
23240;PMS7003;11789;53.482;9.862;2023-02-11T00:04:25;63.67;50.00;31.00
23240;PMS7003;11789;53.482;9.862;2023-02-11T00:06:50;70.67;54.00;31.33
23240;PMS7003;11789;53.482;9.862;2023-02-11T00:09:16;72.33;51.67;31.33
23240;PMS7003;11789;53.482;9.862;2023-02-11T00:11:41;70.67;56.00;32.00
23240;PMS7003;11789;53.482;9.862;2023-02-11T00:14:07;63.33;51.33;30.00
23240;PMS7003;11789;53.482;9.862;2023-02-11T00:16:34;69.00;54.00;31.33
23240;PMS7003;11789;53.482;9.862;2023-02-11T00:19:00;71.67;54.00;31.00
23240;PMS7003;11789;53.482;9.862;2023-02-11T00:21:32;68.00;52.67;31.33
23240;PMS7003;11789;53.482;9.862;2023-02-11T00:23:58;66.67;50.67;30.00
23240;PMS7003;11789;53.482;9.862;2023-02-11T00:26:32;62.33;51.67;31.33
23240;PMS7003;11789;53.482;9.862;2023-02-11T00:28:59;69.00;52.33;31.33
23240;PMS7003;11789;53.482;9.862;2023-02-11T00:31:25;68.33;52.00;29.00
23240;PMS7003;11789;53.482;9.862;2023-02-11T00:33:51;70.33;51.67;31.33
23240;PMS7003;11789;53.482;9.862;2023-02-11T00:36:18;72.33;54.00;31.00
23240;PMS7003;11789;53.482;9.862;2023-02-11T00:38:50;70.00;52.00;32.00
23240;PMS7003;11789;53.482;9.862;2023-02-11T00:41:16;71.33;53.33;32.33
23240;PMS7003;11789;53.482;9.862;2023-02-11T00:43:42;68.33;53.00;32.00
23240;PMS7003;11789;53.482;9.862;2023-02-11T00:46:08;67.67;52.33;31.33
23240;PMS7003;11789;53.482;9.862;2023-02-11T00:48:34;72.00;54.00;32.00
23240;PMS7003;11789;53.482;9.862;2023-02-11T00:51:00;64.00;51.67;32.00
23240;PMS7003;11789;53.482;9.862;2023-02-11T00:53:26;66.67;53.00;32.00
23240;PMS7003;11789;53.482;9.862;2023-02-11T00:55:51;65.67;51.67;31.33
23240;PMS7003;11789;53.482;9.862;2023-02-11T00:58:17;68.00;51.67;30.00
23240;PMS7003;11789;53.482;9.862;2023-02-11T01:00:42;69.33;54.67;31.00
23240;PMS7003;11789;53.482;9.862;2023-02-11T01:03:08;68.67;52.67;31.00
23240;PMS7003;11789;53.482;9.862;2023-02-11T01:05:33;72.00;55.33;32.00
23240;PMS7003;11789;53.482;9.862;2023-02-11T01:07:59;71.67;54.67;30.67
23240;PMS7003;11789;53.482;9.862;2023-02-11T01:10:25;65.00;51.67;31.00
23240;PMS7003;11789;53.482;9.862;2023-02-11T01:12:50;75.67;57.33;32.33
23240;PMS7003;11789;53.482;9.862;2023-02-11T01:15:16;69.00;53.33;31.33
23240;PMS7003;11789;53.482;9.862;2023-02-11T01:17:43;65.67;51.00;31.67
23240;PMS7003;11789;53.482;9.862;2023-02-11T01:20:16;64.33;51.33;31.33
23240;PMS7003;11789;53.482;9.862;2023-02-11T01:22:45;71.67;55.67;32.33
23240;PMS7003;11789;53.482;9.862;2023-02-11T01:25:11;69.00;52.67;32.00
23240;PMS7003;11789;53.482;9.862;2023-02-11T01:27:37;68.00;52.67;31.33
23240;PMS7003;11789;53.482;9.862;2023-02-11T01:30:03;70.33;53.00;31.67
23240;PMS7003;11789;53.482;9.862;2023-02-11T01:32:31;66.67;52.67;31.33
23240;PMS7003;11789;53.482;9.862;2023-02-11T01:34:57;73.00;57.00;32.33
23240;PMS7003;11789;53.482;9.862;2023-02-11T01:37:22;66.33;51.67;30.67
23240;PMS7003;11789;53.482;9.862;2023-02-11T01:39:48;71.00;54.00;32.33
23240;PMS7003;11789;53.482;9.862;2023-02-11T01:42:20;66.67;53.00;31.33
23240;PMS7003;11789;53.482;9.862;2023-02-11T01:44:50;64.67;53.67;30.00
23240;PMS7003;11789;53.482;9.862;2023-02-11T01:47:17;72.33;53.00;30.33
23240;PMS7003;11789;53.482;9.862;2023-02-11T01:49:45;70.33;51.33;30.00
23240;PMS7003;11789;53.482;9.862;2023-02-11T01:52:15;66.00;50.67;30.00
23240;PMS7003;11789;53.482;9.862;2023-02-11T01:54:52;67.33;52.00;30.00
23240;PMS7003;11789;53.482;9.862;2023-02-11T01:57:41;63.33;50.33;30.00
23240;PMS7003;11789;53.482;9.862;2023-02-11T02:00:16;66.33;51.67;30.00
23240;PMS7003;11789;53.482;9.862;2023-02-11T02:02:51;70.33;51.67;31.33
23240;PMS7003;11789;53.482;9.862;2023-02-11T02:05:34;62.33;49.00;29.00
23240;PMS7003;11789;53.482;9.862;2023-02-11T02:10:53;62.00;49.00;30.00
23240;PMS7003;11789;53.482;9.862;2023-02-11T02:13:23;65.00;51.33;30.67
23240;PMS7003;11789;53.482;9.862;2023-02-11T02:15:52;64.67;51.00;28.67
23240;PMS7003;11789;53.482;9.862;2023-02-11T02:34:57;62.00;49.00;28.33
23240;PMS7003;11789;53.482;9.862;2023-02-11T02:37:36;62.33;50.00;29.00
23240;PMS7003;11789;53.482;9.862;2023-02-11T02:40:11;62.67;50.00;29.33
23240;PMS7003;11789;53.482;9.862;2023-02-11T02:42:43;58.33;46.00;26.33
23240;PMS7003;11789;53.482;9.862;2023-02-11T02:45:08;61.67;47.67;28.00
23240;PMS7003;11789;53.482;9.862;2023-02-11T02:47:36;60.00;48.00;28.00
23240;PMS7003;11789;53.482;9.862;2023-02-11T02:50:02;54.00;44.67;26.33
23240;PMS7003;11789;53.482;9.862;2023-02-11T02:55:20;59.67;47.00;26.00
23240;PMS7003;11789;53.482;9.862;2023-02-11T03:11:13;60.33;49.00;27.33
23240;PMS7003;11789;53.482;9.862;2023-02-11T03:13:42;51.00;43.33;25.00
23240;PMS7003;11789;53.482;9.862;2023-02-11T03:16:14;60.00;47.67;27.33
23240;PMS7003;11789;53.482;9.862;2023-02-11T03:18:46;57.33;45.33;26.00
23240;PMS7003;11789;53.482;9.862;2023-02-11T03:21:16;61.00;47.00;26.33
23240;PMS7003;11789;53.482;9.862;2023-02-11T03:23:49;60.33;46.00;27.33
23240;PMS7003;11789;53.482;9.862;2023-02-11T03:26:24;53.67;43.67;27.00
23240;PMS7003;11789;53.482;9.862;2023-02-11T03:29:01;54.33;44.00;25.33
23240;PMS7003;11789;53.482;9.862;2023-02-11T03:34:28;50.00;41.67;24.00
23240;PMS7003;11789;53.482;9.862;2023-02-11T03:37:06;48.67;42.00;26.00
23240;PMS7003;11789;53.482;9.862;2023-02-11T03:39:47;55.33;40.33;24.00
23240;PMS7003;11789;53.482;9.862;2023-02-11T03:42:18;51.00;39.00;23.67
23240;PMS7003;11789;53.482;9.862;2023-02-11T03:44:48;51.00;42.00;25.00
23240;PMS7003;11789;53.482;9.862;2023-02-11T03:47:18;47.67;41.33;25.00
23240;PMS7003;11789;53.482;9.862;2023-02-11T03:49:48;50.67;42.00;24.00
23240;PMS7003;11789;53.482;9.862;2023-02-11T03:52:17;57.33;41.00;23.67
23240;PMS7003;11789;53.482;9.862;2023-02-11T03:54:46;52.00;40.33;23.33
23240;PMS7003;11789;53.482;9.862;2023-02-11T03:57:15;46.33;40.33;23.67
23240;PMS7003;11789;53.482;9.862;2023-02-11T03:59:57;52.67;40.00;23.00
23240;PMS7003;11789;53.482;9.862;2023-02-11T04:02:24;52.33;37.67;23.00
23240;PMS7003;11789;53.482;9.862;2023-02-11T04:04:53;41.67;37.33;23.00
23240;PMS7003;11789;53.482;9.862;2023-02-11T04:07:19;44.33;38.00;24.00
23240;PMS7003;11789;53.482;9.862;2023-02-11T04:09:44;44.67;39.33;24.00
23240;PMS7003;11789;53.482;9.862;2023-02-11T04:12:10;46.33;38.00;23.00
23240;PMS7003;11789;53.482;9.862;2023-02-11T04:14:36;39.67;37.67;22.33
23240;PMS7003;11789;53.482;9.862;2023-02-11T04:17:01;46.00;37.00;20.67
23240;PMS7003;11789;53.482;9.862;2023-02-11T04:19:30;51.67;38.00;23.67
23240;PMS7003;11789;53.482;9.862;2023-02-11T04:21:56;47.33;37.00;22.67
23240;PMS7003;11789;53.482;9.862;2023-02-11T04:24:21;46.00;38.33;21.33
23240;PMS7003;11789;53.482;9.862;2023-02-11T04:26:47;45.00;36.33;22.67
23240;PMS7003;11789;53.482;9.862;2023-02-11T04:29:12;44.67;37.33;22.00
23240;PMS7003;11789;53.482;9.862;2023-02-11T04:31:38;40.00;34.00;20.33
23240;PMS7003;11789;53.482;9.862;2023-02-11T04:34:03;44.33;36.33;22.33
23240;PMS7003;11789;53.482;9.862;2023-02-11T04:36:29;45.67;38.33;23.00
23240;PMS7003;11789;53.482;9.862;2023-02-11T04:38:54;46.33;38.00;23.00
23240;PMS7003;11789;53.482;9.862;2023-02-11T04:41:20;44.67;36.33;23.00
23240;PMS7003;11789;53.482;9.862;2023-02-11T04:43:45;44.67;36.00;22.33
23240;PMS7003;11789;53.482;9.862;2023-02-11T04:46:11;42.67;36.00;23.00
23240;PMS7003;11789;53.482;9.862;2023-02-11T04:48:36;47.00;36.33;23.00
23240;PMS7003;11789;53.482;9.862;2023-02-11T04:51:02;39.33;37.00;22.67
23240;PMS7003;11789;53.482;9.862;2023-02-11T04:53:27;42.00;35.25;23.00
23240;PMS7003;11789;53.482;9.862;2023-02-11T04:55:53;38.33;35.67;23.00
23240;PMS7003;11789;53.482;9.862;2023-02-11T04:58:19;42.75;34.75;21.75
23240;PMS7003;11789;53.482;9.862;2023-02-11T05:00:45;37.25;34.25;20.25
23240;PMS7003;11789;53.482;9.862;2023-02-11T05:03:10;42.25;33.50;19.25
23240;PMS7003;11789;53.482;9.862;2023-02-11T05:05:37;41.50;35.75;19.75
23240;PMS7003;11789;53.482;9.862;2023-02-11T05:08:04;37.50;33.25;20.25
23240;PMS7003;11789;53.482;9.862;2023-02-11T05:10:31;43.25;34.75;20.00
23240;PMS7003;11789;53.482;9.862;2023-02-11T05:12:57;40.67;30.33;19.33
23240;PMS7003;11789;53.482;9.862;2023-02-11T05:15:22;39.00;36.67;21.33
23240;PMS7003;11789;53.482;9.862;2023-02-11T05:17:48;42.67;34.00;22.33
23240;PMS7003;11789;53.482;9.862;2023-02-11T05:20:13;35.67;34.00;20.33
23240;PMS7003;11789;53.482;9.862;2023-02-11T05:22:39;41.33;33.33;17.67
23240;PMS7003;11789;53.482;9.862;2023-02-11T05:25:05;46.33;33.33;19.33
23240;PMS7003;11789;53.482;9.862;2023-02-11T05:27:30;38.00;33.67;19.67
23240;PMS7003;11789;53.482;9.862;2023-02-11T05:29:56;43.67;34.00;19.67
23240;PMS7003;11789;53.482;9.862;2023-02-11T05:32:21;44.67;34.67;20.67
23240;PMS7003;11789;53.482;9.862;2023-02-11T05:34:47;33.00;29.67;19.33
23240;PMS7003;11789;53.482;9.862;2023-02-11T05:37:12;32.75;32.75;19.25
23240;PMS7003;11789;53.482;9.862;2023-02-11T05:39:38;35.67;32.33;19.33
23240;PMS7003;11789;53.482;9.862;2023-02-11T05:42:03;37.33;32.33;22.67
23240;PMS7003;11789;53.482;9.862;2023-02-11T05:44:28;48.00;33.33;18.67
23240;PMS7003;11789;53.482;9.862;2023-02-11T05:46:54;45.00;36.00;21.00
23240;PMS7003;11789;53.482;9.862;2023-02-11T05:49:20;39.00;32.50;19.50
23240;PMS7003;11789;53.482;9.862;2023-02-11T05:51:45;36.33;33.67;19.00
23240;PMS7003;11789;53.482;9.862;2023-02-11T05:54:11;36.00;31.33;19.67
23240;PMS7003;11789;53.482;9.862;2023-02-11T05:56:36;35.33;33.67;22.33
23240;PMS7003;11789;53.482;9.862;2023-02-11T05:59:02;36.00;29.00;19.00
23240;PMS7003;11789;53.482;9.862;2023-02-11T06:01:28;33.67;31.00;21.00
23240;PMS7003;11789;53.482;9.862;2023-02-11T06:03:54;40.33;35.00;19.67
23240;PMS7003;11789;53.482;9.862;2023-02-11T06:06:19;33.67;31.33;18.67
23240;PMS7003;11789;53.482;9.862;2023-02-11T06:08:45;43.00;34.33;19.00
23240;PMS7003;11789;53.482;9.862;2023-02-11T06:11:10;36.00;31.75;18.00
23240;PMS7003;11789;53.482;9.862;2023-02-11T06:13:38;37.50;28.25;19.00
23240;PMS7003;11789;53.482;9.862;2023-02-11T06:16:04;40.67;33.00;19.33
23240;PMS7003;11789;53.482;9.862;2023-02-11T06:18:29;36.33;33.33;19.00
23240;PMS7003;11789;53.482;9.862;2023-02-11T06:20:57;33.75;31.50;18.00
23240;PMS7003;11789;53.482;9.862;2023-02-11T06:23:23;48.00;36.00;23.00
23240;PMS7003;11789;53.482;9.862;2023-02-11T06:25:49;39.00;32.50;20.00
23240;PMS7003;11789;53.482;9.862;2023-02-11T06:28:14;33.50;31.75;17.75
23240;PMS7003;11789;53.482;9.862;2023-02-11T06:30:40;38.75;33.50;19.00
23240;PMS7003;11789;53.482;9.862;2023-02-11T06:33:05;32.67;31.00;18.67
23240;PMS7003;11789;53.482;9.862;2023-02-11T06:35:31;38.67;33.00;19.67
23240;PMS7003;11789;53.482;9.862;2023-02-11T06:37:59;37.50;33.00;19.75
23240;PMS7003;11789;53.482;9.862;2023-02-11T06:40:25;41.00;34.50;19.00
23240;PMS7003;11789;53.482;9.862;2023-02-11T06:42:50;36.67;29.33;19.00
23240;PMS7003;11789;53.482;9.862;2023-02-11T06:45:15;36.75;29.00;19.00
23240;PMS7003;11789;53.482;9.862;2023-02-11T06:47:41;38.50;32.00;18.00
23240;PMS7003;11789;53.482;9.862;2023-02-11T06:50:07;36.50;32.00;18.25
23240;PMS7003;11789;53.482;9.862;2023-02-11T06:52:36;31.67;27.67;19.00
23240;PMS7003;11789;53.482;9.862;2023-02-11T06:55:01;32.25;31.00;18.75
23240;PMS7003;11789;53.482;9.862;2023-02-11T06:57:28;33.00;28.25;18.00
23240;PMS7003;11789;53.482;9.862;2023-02-11T06:59:54;27.75;27.50;18.00
23240;PMS7003;11789;53.482;9.862;2023-02-11T07:02:19;36.00;29.50;17.50
23240;PMS7003;11789;53.482;9.862;2023-02-11T07:04:45;32.50;28.50;17.00
23240;PMS7003;11789;53.482;9.862;2023-02-11T07:07:10;33.25;31.00;18.00
23240;PMS7003;11789;53.482;9.862;2023-02-11T07:09:35;31.00;28.75;17.50
23240;PMS7003;11789;53.482;9.862;2023-02-11T07:12:01;34.67;34.00;20.00
23240;PMS7003;11789;53.482;9.862;2023-02-11T07:14:26;34.25;30.00;19.50
23240;PMS7003;11789;53.482;9.862;2023-02-11T07:16:52;32.25;29.00;17.00
23240;PMS7003;11789;53.482;9.862;2023-02-11T07:19:17;37.00;33.67;21.67
23240;PMS7003;11789;53.482;9.862;2023-02-11T07:21:43;33.25;30.75;19.25
23240;PMS7003;11789;53.482;9.862;2023-02-11T07:24:08;37.75;31.50;19.25
23240;PMS7003;11789;53.482;9.862;2023-02-11T07:26:34;35.50;32.25;21.25
23240;PMS7003;11789;53.482;9.862;2023-02-11T07:29:00;33.75;31.75;19.00
23240;PMS7003;11789;53.482;9.862;2023-02-11T07:31:27;36.25;33.50;17.75
23240;PMS7003;11789;53.482;9.862;2023-02-11T07:33:54;39.25;32.00;19.00
23240;PMS7003;11789;53.482;9.862;2023-02-11T07:36:21;38.25;33.75;18.25
23240;PMS7003;11789;53.482;9.862;2023-02-11T07:38:47;45.33;34.00;20.00
23240;PMS7003;11789;53.482;9.862;2023-02-11T07:41:14;32.75;26.75;17.50
23240;PMS7003;11789;53.482;9.862;2023-02-11T07:43:42;39.00;32.25;18.75
23240;PMS7003;11789;53.482;9.862;2023-02-11T07:46:09;34.75;33.50;20.00
23240;PMS7003;11789;53.482;9.862;2023-02-11T07:48:37;43.50;36.25;19.00
23240;PMS7003;11789;53.482;9.862;2023-02-11T07:51:16;30.75;29.75;18.25
23240;PMS7003;11789;53.482;9.862;2023-02-11T07:53:43;34.50;33.50;18.75
23240;PMS7003;11789;53.482;9.862;2023-02-11T07:56:09;35.00;30.75;18.50
23240;PMS7003;11789;53.482;9.862;2023-02-11T07:58:35;36.67;34.67;19.67
23240;PMS7003;11789;53.482;9.862;2023-02-11T08:01:05;36.75;31.25;18.50
23240;PMS7003;11789;53.482;9.862;2023-02-11T08:03:33;33.25;31.75;18.50
23240;PMS7003;11789;53.482;9.862;2023-02-11T08:06:05;32.75;31.75;18.25
23240;PMS7003;11789;53.482;9.862;2023-02-11T08:08:32;27.00;26.50;17.25
23240;PMS7003;11789;53.482;9.862;2023-02-11T08:11:00;33.50;32.00;17.75
23240;PMS7003;11789;53.482;9.862;2023-02-11T08:13:30;31.75;30.00;17.75
23240;PMS7003;11789;53.482;9.862;2023-02-11T08:15:57;35.00;28.00;17.75
23240;PMS7003;11789;53.482;9.862;2023-02-11T08:18:23;36.00;30.25;19.00
23240;PMS7003;11789;53.482;9.862;2023-02-11T08:20:48;36.50;32.25;19.25
23240;PMS7003;11789;53.482;9.862;2023-02-11T08:23:13;33.50;31.00;18.75
23240;PMS7003;11789;53.482;9.862;2023-02-11T08:25:39;36.25;32.50;19.00
23240;PMS7003;11789;53.482;9.862;2023-02-11T08:28:04;39.75;29.75;16.75
23240;PMS7003;11789;53.482;9.862;2023-02-11T08:30:30;38.25;32.50;20.00
23240;PMS7003;11789;53.482;9.862;2023-02-11T08:32:55;48.25;35.50;21.00
23240;PMS7003;11789;53.482;9.862;2023-02-11T08:35:21;38.75;30.00;17.75
23240;PMS7003;11789;53.482;9.862;2023-02-11T08:37:46;35.00;33.50;20.00
23240;PMS7003;11789;53.482;9.862;2023-02-11T08:40:12;45.00;36.00;18.50
23240;PMS7003;11789;53.482;9.862;2023-02-11T08:42:37;29.75;26.75;17.25
23240;PMS7003;11789;53.482;9.862;2023-02-11T08:45:03;29.25;26.25;17.25
23240;PMS7003;11789;53.482;9.862;2023-02-11T08:47:29;36.00;34.00;20.00
23240;PMS7003;11789;53.482;9.862;2023-02-11T08:49:55;35.25;30.00;17.50
23240;PMS7003;11789;53.482;9.862;2023-02-11T08:52:21;38.50;34.75;21.00
23240;PMS7003;11789;53.482;9.862;2023-02-11T08:54:46;30.75;28.25;19.50
23240;PMS7003;11789;53.482;9.862;2023-02-11T08:57:12;38.25;32.50;19.25
23240;PMS7003;11789;53.482;9.862;2023-02-11T08:59:37;37.00;32.00;20.00
23240;PMS7003;11789;53.482;9.862;2023-02-11T09:02:04;33.00;30.00;18.75
23240;PMS7003;11789;53.482;9.862;2023-02-11T09:04:30;36.50;32.25;18.75
23240;PMS7003;11789;53.482;9.862;2023-02-11T09:06:55;31.00;30.00;17.25
23240;PMS7003;11789;53.482;9.862;2023-02-11T09:09:21;30.50;28.50;18.00
23240;PMS7003;11789;53.482;9.862;2023-02-11T09:11:46;36.25;29.75;17.25
23240;PMS7003;11789;53.482;9.862;2023-02-11T09:14:19;29.25;26.50;16.25
23240;PMS7003;11789;53.482;9.862;2023-02-11T09:16:47;29.25;29.25;17.25
23240;PMS7003;11789;53.482;9.862;2023-02-11T09:19:14;30.00;28.25;18.00
23240;PMS7003;11789;53.482;9.862;2023-02-11T09:21:39;27.50;26.25;17.50
23240;PMS7003;11789;53.482;9.862;2023-02-11T09:24:05;29.00;27.75;17.25
23240;PMS7003;11789;53.482;9.862;2023-02-11T09:26:31;32.00;25.00;15.50
23240;PMS7003;11789;53.482;9.862;2023-02-11T09:28:58;34.50;29.75;17.50
23240;PMS7003;11789;53.482;9.862;2023-02-11T09:31:25;32.50;27.25;15.50
23240;PMS7003;11789;53.482;9.862;2023-02-11T09:33:54;45.67;38.67;24.33
23240;PMS7003;11789;53.482;9.862;2023-02-11T09:36:25;29.50;23.75;14.00
23240;PMS7003;11789;53.482;9.862;2023-02-11T09:38:53;27.00;27.00;17.00
23240;PMS7003;11789;53.482;9.862;2023-02-11T09:43:48;31.25;25.00;16.25
23240;PMS7003;11789;53.482;9.862;2023-02-11T09:46:17;31.25;28.25;16.25
23240;PMS7003;11789;53.482;9.862;2023-02-11T09:48:46;29.25;24.00;15.25
23240;PMS7003;11789;53.482;9.862;2023-02-11T09:51:18;27.75;23.75;14.75
23240;PMS7003;11789;53.482;9.862;2023-02-11T09:53:51;33.25;26.25;16.25
23240;PMS7003;11789;53.482;9.862;2023-02-11T09:56:25;26.75;24.50;15.25
23240;PMS7003;11789;53.482;9.862;2023-02-11T09:58:52;28.50;23.75;13.00
23240;PMS7003;11789;53.482;9.862;2023-02-11T10:01:23;25.00;25.00;15.00
23240;PMS7003;11789;53.482;9.862;2023-02-11T10:10:16;24.75;22.50;13.00
23240;PMS7003;11789;53.482;9.862;2023-02-11T10:16:00;23.00;20.50;14.00
23240;PMS7003;11789;53.482;9.862;2023-02-11T10:18:39;29.25;26.75;18.00
23240;PMS7003;11789;53.482;9.862;2023-02-11T10:23:53;31.25;24.75;15.50
23240;PMS7003;11789;53.482;9.862;2023-02-11T10:26:25;30.25;24.50;14.75
23240;PMS7003;11789;53.482;9.862;2023-02-11T10:28:55;29.25;28.25;15.75
23240;PMS7003;11789;53.482;9.862;2023-02-11T10:31:27;28.50;24.25;14.50
23240;PMS7003;11789;53.482;9.862;2023-02-11T10:34:05;33.00;27.50;13.00
23240;PMS7003;11789;53.482;9.862;2023-02-11T10:36:34;26.25;24.25;14.50
23240;PMS7003;11789;53.482;9.862;2023-02-11T10:39:19;25.25;22.75;14.25
23240;PMS7003;11789;53.482;9.862;2023-02-11T10:41:59;25.00;21.00;13.00
23240;PMS7003;11789;53.482;9.862;2023-02-11T10:44:31;22.00;22.00;12.50
23240;PMS7003;11789;53.482;9.862;2023-02-11T10:47:06;27.25;22.50;12.75
23240;PMS7003;11789;53.482;9.862;2023-02-11T10:49:42;27.75;23.50;12.25
23240;PMS7003;11789;53.482;9.862;2023-02-11T10:54:39;26.50;23.00;12.00
23240;PMS7003;11789;53.482;9.862;2023-02-11T10:57:05;26.75;21.00;13.25
23240;PMS7003;11789;53.482;9.862;2023-02-11T10:59:34;21.50;19.00;12.00
23240;PMS7003;11789;53.482;9.862;2023-02-11T11:02:16;26.50;23.25;12.25
23240;PMS7003;11789;53.482;9.862;2023-02-11T11:04:47;25.75;20.00;13.50
23240;PMS7003;11789;53.482;9.862;2023-02-11T11:07:23;23.00;21.75;13.00
23240;PMS7003;11789;53.482;9.862;2023-02-11T11:10:10;22.00;20.50;11.25
23240;PMS7003;11789;53.482;9.862;2023-02-11T11:18:40;23.00;22.75;14.50
23240;PMS7003;11789;53.482;9.862;2023-02-11T11:21:21;27.25;19.50;11.75
23240;PMS7003;11789;53.482;9.862;2023-02-11T11:23:48;28.50;18.75;12.00
23240;PMS7003;11789;53.482;9.862;2023-02-11T11:26:19;25.00;20.50;12.00
23240;PMS7003;11789;53.482;9.862;2023-02-11T11:28:52;23.00;21.00;13.00
23240;PMS7003;11789;53.482;9.862;2023-02-11T11:31:28;21.75;20.50;11.75
23240;PMS7003;11789;53.482;9.862;2023-02-11T11:33:59;22.25;19.25;11.50
23240;PMS7003;11789;53.482;9.862;2023-02-11T11:36:44;17.50;17.00;11.25
23240;PMS7003;11789;53.482;9.862;2023-02-11T11:39:43;16.25;13.50;11.25
23240;PMS7003;11789;53.482;9.862;2023-02-11T11:42:04;24.50;20.50;12.25
23240;PMS7003;11789;53.482;9.862;2023-02-11T11:44:45;17.25;14.75;10.25
23240;PMS7003;11789;53.482;9.862;2023-02-11T11:47:42;14.50;13.25;10.75
23240;PMS7003;11789;53.482;9.862;2023-02-11T11:53:36;18.25;14.50;9.00
23240;PMS7003;11789;53.482;9.862;2023-02-11T11:56:08;24.75;19.75;12.00
23240;PMS7003;11789;53.482;9.862;2023-02-11T11:58:38;19.00;13.00;9.50
23240;PMS7003;11789;53.482;9.862;2023-02-11T12:06:47;20.00;16.50;10.00
23240;PMS7003;11789;53.482;9.862;2023-02-11T12:09:43;14.50;12.25;8.25
23240;PMS7003;11789;53.482;9.862;2023-02-11T12:15:29;13.75;13.25;8.25
23240;PMS7003;11789;53.482;9.862;2023-02-11T12:21:11;12.75;12.25;9.50
23240;PMS7003;11789;53.482;9.862;2023-02-11T12:26:21;10.50;10.50;7.00
23240;PMS7003;11789;53.482;9.862;2023-02-11T12:31:26;12.50;11.00;7.75
23240;PMS7003;11789;53.482;9.862;2023-02-11T12:34:17;13.00;9.25;6.00
23240;PMS7003;11789;53.482;9.862;2023-02-11T12:39:32;10.00;10.00;5.25
23240;PMS7003;11789;53.482;9.862;2023-02-11T12:42:17;10.50;8.75;6.50
23240;PMS7003;11789;53.482;9.862;2023-02-11T12:47:39;10.75;10.50;7.00
23240;PMS7003;11789;53.482;9.862;2023-02-11T12:53:01;10.75;9.50;6.50
23240;PMS7003;11789;53.482;9.862;2023-02-11T12:55:47;12.50;9.00;6.00
23240;PMS7003;11789;53.482;9.862;2023-02-11T12:58:20;12.50;10.75;5.50
23240;PMS7003;11789;53.482;9.862;2023-02-11T13:00:53;11.25;8.00;5.50
23240;PMS7003;11789;53.482;9.862;2023-02-11T13:03:23;11.25;10.50;6.00
23240;PMS7003;11789;53.482;9.862;2023-02-11T13:05:59;10.25;7.00;6.00
23240;PMS7003;11789;53.482;9.862;2023-02-11T13:08:31;13.25;9.75;7.00
23240;PMS7003;11789;53.482;9.862;2023-02-11T13:11:01;10.75;8.00;5.00
23240;PMS7003;11789;53.482;9.862;2023-02-11T13:13:52;7.00;7.00;6.00
23240;PMS7003;11789;53.482;9.862;2023-02-11T13:22:04;9.25;5.00;3.75
23240;PMS7003;11789;53.482;9.862;2023-02-11T13:25:03;5.00;5.00;4.00
23240;PMS7003;11789;53.482;9.862;2023-02-11T13:27:42;5.50;5.50;4.50
23240;PMS7003;11789;53.482;9.862;2023-02-11T13:35:41;6.50;3.50;3.25
23240;PMS7003;11789;53.482;9.862;2023-02-11T13:38:21;6.00;4.50;3.75
23240;PMS7003;11789;53.482;9.862;2023-02-11T13:40:59;6.00;5.00;4.00
23240;PMS7003;11789;53.482;9.862;2023-02-11T13:43:27;6.25;5.00;3.00
23240;PMS7003;11789;53.482;9.862;2023-02-11T13:46:12;4.50;4.50;3.25
23240;PMS7003;11789;53.482;9.862;2023-02-11T13:48:49;5.50;4.50;3.00
23240;PMS7003;11789;53.482;9.862;2023-02-11T13:51:50;11.50;5.00;4.00
23240;PMS7003;11789;53.482;9.862;2023-02-11T13:54:17;10.25;6.00;4.00
23240;PMS7003;11789;53.482;9.862;2023-02-11T13:57:18;8.00;4.75;4.00
23240;PMS7003;11789;53.482;9.862;2023-02-11T13:59:54;10.25;6.50;4.00
23240;PMS7003;11789;53.482;9.862;2023-02-11T14:02:29;5.75;5.00;3.00
23240;PMS7003;11789;53.482;9.862;2023-02-11T14:05:20;11.25;7.00;5.00
23240;PMS7003;11789;53.482;9.862;2023-02-11T14:10:56;7.00;7.00;4.00
23240;PMS7003;11789;53.482;9.862;2023-02-11T14:13:30;6.00;5.00;3.50
23240;PMS7003;11789;53.482;9.862;2023-02-11T14:16:12;10.00;5.75;5.00
23240;PMS7003;11789;53.482;9.862;2023-02-11T14:21:19;10.00;7.75;5.25
23240;PMS7003;11789;53.482;9.862;2023-02-11T14:23:48;8.75;6.75;5.00
23240;PMS7003;11789;53.482;9.862;2023-02-11T14:28:58;10.00;7.25;5.00
23240;PMS7003;11789;53.482;9.862;2023-02-11T14:39:42;15.00;11.25;7.00
23240;PMS7003;11789;53.482;9.862;2023-02-11T14:42:21;14.25;9.50;5.25
23240;PMS7003;11789;53.482;9.862;2023-02-11T14:44:51;11.75;11.25;7.00
23240;PMS7003;11789;53.482;9.862;2023-02-11T14:47:22;21.25;11.25;7.75
23240;PMS7003;11789;53.482;9.862;2023-02-11T14:49:59;12.25;9.00;5.50
23240;PMS7003;11789;53.482;9.862;2023-02-11T14:52:29;10.75;8.75;6.00
23240;PMS7003;11789;53.482;9.862;2023-02-11T14:55:03;10.25;8.50;6.00
23240;PMS7003;11789;53.482;9.862;2023-02-11T14:58:04;13.00;8.50;6.00
23240;PMS7003;11789;53.482;9.862;2023-02-11T15:00:36;14.00;10.75;6.00
23240;PMS7003;11789;53.482;9.862;2023-02-11T15:03:34;11.75;9.75;6.00
23240;PMS7003;11789;53.482;9.862;2023-02-11T15:06:05;15.50;10.75;6.50
23240;PMS7003;11789;53.482;9.862;2023-02-11T15:09:26;13.50;13.00;9.00
23240;PMS7003;11789;53.482;9.862;2023-02-11T15:11:38;12.00;10.25;6.50
23240;PMS7003;11789;53.482;9.862;2023-02-11T15:14:07;13.25;12.00;6.25
23240;PMS7003;11789;53.482;9.862;2023-02-11T15:16:41;14.25;8.00;6.00
23240;PMS7003;11789;53.482;9.862;2023-02-11T15:19:16;13.75;9.50;6.00
23240;PMS7003;11789;53.482;9.862;2023-02-11T15:21:43;9.50;8.00;5.00
23240;PMS7003;11789;53.482;9.862;2023-02-11T15:29:26;14.00;6.25;4.50
23240;PMS7003;11789;53.482;9.862;2023-02-11T15:32:13;12.75;7.25;4.50
23240;PMS7003;11789;53.482;9.862;2023-02-11T15:34:41;12.75;7.00;5.00
23240;PMS7003;11789;53.482;9.862;2023-02-11T15:37:10;16.75;11.25;7.00
23240;PMS7003;11789;53.482;9.862;2023-02-11T15:39:40;12.50;7.00;5.00
23240;PMS7003;11789;53.482;9.862;2023-02-11T15:47:38;45.67;36.33;24.67
23240;PMS7003;11789;53.482;9.862;2023-02-11T15:50:04;15.00;13.50;7.75
23240;PMS7003;11789;53.482;9.862;2023-02-11T15:52:31;9.50;7.00;4.25
23240;PMS7003;11789;53.482;9.862;2023-02-11T15:54:58;13.75;9.25;5.25
23240;PMS7003;11789;53.482;9.862;2023-02-11T15:57:26;9.50;6.25;5.00
23240;PMS7003;11789;53.482;9.862;2023-02-11T15:59:52;10.25;7.50;5.25
23240;PMS7003;11789;53.482;9.862;2023-02-11T16:02:52;13.00;8.50;6.00
23240;PMS7003;11789;53.482;9.862;2023-02-11T16:05:44;25.00;17.50;8.50
23240;PMS7003;11789;53.482;9.862;2023-02-11T16:10:54;17.50;14.00;7.00
23240;PMS7003;11789;53.482;9.862;2023-02-11T16:13:27;11.25;8.25;6.00
23240;PMS7003;11789;53.482;9.862;2023-02-11T16:16:04;16.75;11.50;6.00
23240;PMS7003;11789;53.482;9.862;2023-02-11T16:18:43;11.50;7.75;5.00
23240;PMS7003;11789;53.482;9.862;2023-02-11T16:21:20;9.00;8.50;5.25